sensor_id;sensor_type;location;lat;lon;timestamp;P1;durP1;ratioP1;P2;durP2;ratioP2
40787;SDS011;26497;52.494;7.546;2023-09-12T00:00:46;373.65;;;338.65;;
40787;SDS011;26497;52.494;7.546;2023-09-12T00:03:13;362.83;;;329.02;;
40787;SDS011;26497;52.494;7.546;2023-09-12T00:05:40;396.25;;;355.67;;
40787;SDS011;26497;52.494;7.546;2023-09-12T00:08:07;398.15;;;355.15;;
40787;SDS011;26497;52.494;7.546;2023-09-12T00:10:34;387.63;;;348.13;;
40787;SDS011;26497;52.494;7.546;2023-09-12T00:13:01;400.77;;;354.58;;
40787;SDS011;26497;52.494;7.546;2023-09-12T00:15:29;395.63;;;353.83;;
40787;SDS011;26497;52.494;7.546;2023-09-12T00:17:57;398.25;;;357.08;;
40787;SDS011;26497;52.494;7.546;2023-09-12T00:20:24;805.67;;;522.88;;
40787;SDS011;26497;52.494;7.546;2023-09-12T00:22:51;799.63;;;521.20;;
40787;SDS011;26497;52.494;7.546;2023-09-12T00:25:19;396.20;;;358.92;;
40787;SDS011;26497;52.494;7.546;2023-09-12T00:27:46;427.98;;;381.15;;
40787;SDS011;26497;52.494;7.546;2023-09-12T00:30:13;371.75;;;338.13;;
40787;SDS011;26497;52.494;7.546;2023-09-12T00:32:40;363.38;;;327.30;;
40787;SDS011;26497;52.494;7.546;2023-09-12T00:35:09;445.00;;;329.85;;
40787;SDS011;26497;52.494;7.546;2023-09-12T00:37:36;353.15;;;316.33;;
40787;SDS011;26497;52.494;7.546;2023-09-12T00:40:03;357.17;;;310.25;;
40787;SDS011;26497;52.494;7.546;2023-09-12T00:42:31;350.02;;;312.10;;
40787;SDS011;26497;52.494;7.546;2023-09-12T00:44:58;350.85;;;315.98;;
40787;SDS011;26497;52.494;7.546;2023-09-12T00:47:25;357.10;;;318.70;;
40787;SDS011;26497;52.494;7.546;2023-09-12T00:49:54;382.10;;;315.20;;
40787;SDS011;26497;52.494;7.546;2023-09-12T00:52:24;371.58;;;311.38;;
40787;SDS011;26497;52.494;7.546;2023-09-12T00:54:52;349.88;;;313.48;;
40787;SDS011;26497;52.494;7.546;2023-09-12T00:57:20;370.67;;;319.90;;
40787;SDS011;26497;52.494;7.546;2023-09-12T00:59:47;350.85;;;313.00;;
40787;SDS011;26497;52.494;7.546;2023-09-12T01:02:15;382.60;;;312.15;;
40787;SDS011;26497;52.494;7.546;2023-09-12T01:04:42;387.30;;;311.52;;
40787;SDS011;26497;52.494;7.546;2023-09-12T01:07:09;484.63;;;326.15;;
40787;SDS011;26497;52.494;7.546;2023-09-12T01:09:37;514.28;;;338.05;;
40787;SDS011;26497;52.494;7.546;2023-09-12T01:12:06;403.33;;;322.70;;
40787;SDS011;26497;52.494;7.546;2023-09-12T01:14:37;847.65;;;495.70;;
40787;SDS011;26497;52.494;7.546;2023-09-12T01:17:04;856.15;;;498.42;;
40787;SDS011;26497;52.494;7.546;2023-09-12T01:19:31;447.33;;;344.60;;
40787;SDS011;26497;52.494;7.546;2023-09-12T01:22:03;376.20;;;334.48;;
40787;SDS011;26497;52.494;7.546;2023-09-12T01:25:09;393.60;;;335.33;;
40787;SDS011;26497;52.494;7.546;2023-09-12T01:27:58;428.00;;;339.45;;
40787;SDS011;26497;52.494;7.546;2023-09-12T01:30:28;466.25;;;346.52;;
40787;SDS011;26497;52.494;7.546;2023-09-12T01:32:58;528.17;;;347.33;;
40787;SDS011;26497;52.494;7.546;2023-09-12T01:35:26;446.00;;;334.75;;
40787;SDS011;26497;52.494;7.546;2023-09-12T01:37:53;440.33;;;342.85;;
40787;SDS011;26497;52.494;7.546;2023-09-12T01:40:20;484.33;;;346.45;;
40787;SDS011;26497;52.494;7.546;2023-09-12T01:43:01;415.85;;;335.95;;
40787;SDS011;26497;52.494;7.546;2023-09-12T01:45:30;389.60;;;337.83;;
40787;SDS011;26497;52.494;7.546;2023-09-12T01:47:58;427.08;;;332.92;;
40787;SDS011;26497;52.494;7.546;2023-09-12T01:50:27;376.20;;;335.70;;
40787;SDS011;26497;52.494;7.546;2023-09-12T01:52:56;369.73;;;326.45;;
40787;SDS011;26497;52.494;7.546;2023-09-12T01:55:23;369.88;;;331.52;;
40787;SDS011;26497;52.494;7.546;2023-09-12T01:57:52;368.08;;;328.52;;
40787;SDS011;26497;52.494;7.546;2023-09-12T02:00:21;360.92;;;321.58;;
40787;SDS011;26497;52.494;7.546;2023-09-12T02:02:49;351.90;;;315.25;;
40787;SDS011;26497;52.494;7.546;2023-09-12T02:05:16;347.40;;;311.90;;
40787;SDS011;26497;52.494;7.546;2023-09-12T02:07:47;354.42;;;315.50;;
40787;SDS011;26497;52.494;7.546;2023-09-12T02:10:15;345.40;;;308.60;;
40787;SDS011;26497;52.494;7.546;2023-09-12T02:12:42;378.48;;;316.67;;
40787;SDS011;26497;52.494;7.546;2023-09-12T02:15:09;378.20;;;321.10;;
40787;SDS011;26497;52.494;7.546;2023-09-12T02:17:38;374.50;;;327.45;;
40787;SDS011;26497;52.494;7.546;2023-09-12T02:20:06;362.67;;;323.50;;
40787;SDS011;26497;52.494;7.546;2023-09-12T02:22:34;372.77;;;323.17;;
40787;SDS011;26497;52.494;7.546;2023-09-12T02:25:02;367.92;;;309.33;;
40787;SDS011;26497;52.494;7.546;2023-09-12T02:27:30;392.98;;;310.52;;
40787;SDS011;26497;52.494;7.546;2023-09-12T02:29:57;412.13;;;315.20;;
40787;SDS011;26497;52.494;7.546;2023-09-12T02:32:24;388.33;;;314.60;;
40787;SDS011;26497;52.494;7.546;2023-09-12T02:34:52;430.88;;;310.25;;
40787;SDS011;26497;52.494;7.546;2023-09-12T02:37:22;511.73;;;318.75;;
40787;SDS011;26497;52.494;7.546;2023-09-12T02:39:49;393.90;;;308.77;;
40787;SDS011;26497;52.494;7.546;2023-09-12T02:42:16;485.67;;;316.92;;
40787;SDS011;26497;52.494;7.546;2023-09-12T02:44:43;417.98;;;310.00;;
40787;SDS011;26497;52.494;7.546;2023-09-12T02:47:10;432.63;;;316.10;;
40787;SDS011;26497;52.494;7.546;2023-09-12T02:49:36;450.23;;;317.42;;
40787;SDS011;26497;52.494;7.546;2023-09-12T02:52:05;396.60;;;316.75;;
40787;SDS011;26497;52.494;7.546;2023-09-12T02:54:32;428.88;;;318.30;;
40787;SDS011;26497;52.494;7.546;2023-09-12T02:56:59;350.80;;;312.60;;
40787;SDS011;26497;52.494;7.546;2023-09-12T02:59:26;366.98;;;313.00;;
40787;SDS011;26497;52.494;7.546;2023-09-12T03:01:53;359.25;;;316.85;;
40787;SDS011;26497;52.494;7.546;2023-09-12T03:04:20;347.48;;;311.42;;
40787;SDS011;26497;52.494;7.546;2023-09-12T03:06:47;422.83;;;323.75;;
40787;SDS011;26497;52.494;7.546;2023-09-12T03:09:15;481.05;;;325.75;;
40787;SDS011;26497;52.494;7.546;2023-09-12T03:11:44;422.92;;;314.27;;
40787;SDS011;26497;52.494;7.546;2023-09-12T03:14:11;367.98;;;307.65;;
40787;SDS011;26497;52.494;7.546;2023-09-12T03:16:38;444.33;;;314.80;;
40787;SDS011;26497;52.494;7.546;2023-09-12T03:19:05;455.40;;;307.27;;
40787;SDS011;26497;52.494;7.546;2023-09-12T03:21:32;490.83;;;309.40;;
40787;SDS011;26497;52.494;7.546;2023-09-12T03:23:59;473.80;;;314.13;;
40787;SDS011;26497;52.494;7.546;2023-09-12T03:26:27;412.55;;;307.98;;
40787;SDS011;26497;52.494;7.546;2023-09-12T03:28:54;410.50;;;316.25;;
40787;SDS011;26497;52.494;7.546;2023-09-12T03:31:21;466.23;;;321.55;;
40787;SDS011;26497;52.494;7.546;2023-09-12T03:33:48;464.35;;;322.27;;
40787;SDS011;26497;52.494;7.546;2023-09-12T03:36:15;487.50;;;328.38;;
40787;SDS011;26497;52.494;7.546;2023-09-12T03:38:43;466.05;;;332.75;;
40787;SDS011;26497;52.494;7.546;2023-09-12T03:41:10;491.25;;;330.90;;
40787;SDS011;26497;52.494;7.546;2023-09-12T03:43:38;487.15;;;333.33;;
40787;SDS011;26497;52.494;7.546;2023-09-12T03:46:05;527.83;;;334.30;;
40787;SDS011;26497;52.494;7.546;2023-09-12T03:48:32;524.92;;;335.08;;
40787;SDS011;26497;52.494;7.546;2023-09-12T03:51:01;525.13;;;345.13;;
40787;SDS011;26497;52.494;7.546;2023-09-12T03:53:29;510.00;;;342.67;;
40787;SDS011;26497;52.494;7.546;2023-09-12T03:55:57;521.97;;;339.05;;
40787;SDS011;26497;52.494;7.546;2023-09-12T03:58:25;508.88;;;347.45;;
40787;SDS011;26497;52.494;7.546;2023-09-12T04:00:53;513.28;;;350.33;;
40787;SDS011;26497;52.494;7.546;2023-09-12T04:03:20;517.17;;;361.35;;
40787;SDS011;26497;52.494;7.546;2023-09-12T04:05:47;601.20;;;363.27;;
40787;SDS011;26497;52.494;7.546;2023-09-12T04:08:16;596.67;;;365.67;;
40787;SDS011;26497;52.494;7.546;2023-09-12T04:10:43;509.10;;;341.90;;
40787;SDS011;26497;52.494;7.546;2023-09-12T04:13:10;568.38;;;354.88;;
40787;SDS011;26497;52.494;7.546;2023-09-12T04:15:37;511.23;;;340.45;;
40787;SDS011;26497;52.494;7.546;2023-09-12T04:18:05;502.95;;;342.48;;
40787;SDS011;26497;52.494;7.546;2023-09-12T04:20:33;511.65;;;335.98;;
40787;SDS011;26497;52.494;7.546;2023-09-12T04:23:00;642.95;;;358.38;;
40787;SDS011;26497;52.494;7.546;2023-09-12T04:25:28;533.80;;;335.60;;
40787;SDS011;26497;52.494;7.546;2023-09-12T04:27:55;520.78;;;342.40;;
40787;SDS011;26497;52.494;7.546;2023-09-12T04:30:23;532.55;;;344.80;;
40787;SDS011;26497;52.494;7.546;2023-09-12T04:32:50;565.38;;;349.15;;
40787;SDS011;26497;52.494;7.546;2023-09-12T04:35:18;483.48;;;344.00;;
40787;SDS011;26497;52.494;7.546;2023-09-12T04:37:45;702.33;;;361.80;;
40787;SDS011;26497;52.494;7.546;2023-09-12T04:40:12;724.40;;;362.27;;
40787;SDS011;26497;52.494;7.546;2023-09-12T04:42:40;606.88;;;348.17;;
40787;SDS011;26497;52.494;7.546;2023-09-12T04:45:07;646.45;;;359.77;;
40787;SDS011;26497;52.494;7.546;2023-09-12T04:47:35;510.30;;;344.02;;
40787;SDS011;26497;52.494;7.546;2023-09-12T04:50:02;519.55;;;338.52;;
40787;SDS011;26497;52.494;7.546;2023-09-12T04:52:31;617.83;;;351.00;;
40787;SDS011;26497;52.494;7.546;2023-09-12T04:54:58;593.38;;;348.05;;
40787;SDS011;26497;52.494;7.546;2023-09-12T04:57:29;469.63;;;327.20;;
40787;SDS011;26497;52.494;7.546;2023-09-12T04:59:57;498.65;;;338.75;;
40787;SDS011;26497;52.494;7.546;2023-09-12T05:02:24;565.03;;;338.60;;
40787;SDS011;26497;52.494;7.546;2023-09-12T05:04:51;625.65;;;344.30;;
40787;SDS011;26497;52.494;7.546;2023-09-12T05:07:18;578.28;;;345.05;;
40787;SDS011;26497;52.494;7.546;2023-09-12T05:09:46;571.42;;;335.60;;
40787;SDS011;26497;52.494;7.546;2023-09-12T05:12:13;517.83;;;329.80;;
40787;SDS011;26497;52.494;7.546;2023-09-12T05:14:40;552.80;;;334.48;;
40787;SDS011;26497;52.494;7.546;2023-09-12T05:17:09;551.08;;;329.48;;
40787;SDS011;26497;52.494;7.546;2023-09-12T05:19:36;600.90;;;337.33;;
40787;SDS011;26497;52.494;7.546;2023-09-12T05:22:04;717.05;;;343.45;;
40787;SDS011;26497;52.494;7.546;2023-09-12T05:24:31;636.70;;;331.27;;
40787;SDS011;26497;52.494;7.546;2023-09-12T05:27:00;658.33;;;349.50;;
40787;SDS011;26497;52.494;7.546;2023-09-12T05:29:27;556.97;;;324.00;;
40787;SDS011;26497;52.494;7.546;2023-09-12T05:31:54;609.90;;;332.48;;
40787;SDS011;26497;52.494;7.546;2023-09-12T05:34:21;495.73;;;311.70;;
40787;SDS011;26497;52.494;7.546;2023-09-12T05:36:49;590.10;;;321.15;;
40787;SDS011;26497;52.494;7.546;2023-09-12T05:39:16;618.60;;;332.55;;
40787;SDS011;26497;52.494;7.546;2023-09-12T05:41:43;573.55;;;333.20;;
40787;SDS011;26497;52.494;7.546;2023-09-12T05:44:12;597.45;;;344.67;;
40787;SDS011;26497;52.494;7.546;2023-09-12T05:46:42;615.45;;;341.17;;
40787;SDS011;26497;52.494;7.546;2023-09-12T05:49:10;608.00;;;354.20;;
40787;SDS011;26497;52.494;7.546;2023-09-12T05:51:37;547.83;;;356.80;;
40787;SDS011;26497;52.494;7.546;2023-09-12T05:54:05;599.30;;;367.95;;
40787;SDS011;26497;52.494;7.546;2023-09-12T05:56:33;515.30;;;360.02;;
40787;SDS011;26497;52.494;7.546;2023-09-12T05:59:00;651.03;;;372.13;;
40787;SDS011;26497;52.494;7.546;2023-09-12T06:01:31;556.50;;;360.52;;
40787;SDS011;26497;52.494;7.546;2023-09-12T06:03:58;506.55;;;337.75;;
40787;SDS011;26497;52.494;7.546;2023-09-12T06:06:27;561.53;;;341.00;;
40787;SDS011;26497;52.494;7.546;2023-09-12T06:08:54;479.80;;;332.75;;
40787;SDS011;26497;52.494;7.546;2023-09-12T06:11:23;470.00;;;327.58;;
40787;SDS011;26497;52.494;7.546;2023-09-12T06:13:50;518.13;;;337.35;;
40787;SDS011;26497;52.494;7.546;2023-09-12T06:16:19;462.80;;;336.00;;
40787;SDS011;26497;52.494;7.546;2023-09-12T06:18:47;480.02;;;334.73;;
40787;SDS011;26497;52.494;7.546;2023-09-12T06:21:14;401.63;;;338.92;;
40787;SDS011;26497;52.494;7.546;2023-09-12T06:26:12;470.15;;;313.05;;
40787;SDS011;26497;52.494;7.546;2023-09-12T06:28:39;471.50;;;356.98;;
40787;SDS011;26497;52.494;7.546;2023-09-12T06:31:07;912.55;;;538.40;;
40787;SDS011;26497;52.494;7.546;2023-09-12T06:33:37;1545.80;;;800.03;;
40787;SDS011;26497;52.494;7.546;2023-09-12T06:36:08;1999.90;;;999.90;;
40787;SDS011;26497;52.494;7.546;2023-09-12T06:38:35;1999.90;;;999.90;;
40787;SDS011;26497;52.494;7.546;2023-09-12T06:41:02;1999.90;;;999.90;;
40787;SDS011;26497;52.494;7.546;2023-09-12T06:43:31;853.92;;;557.63;;
40787;SDS011;26497;52.494;7.546;2023-09-12T06:46:00;878.67;;;556.90;;
40787;SDS011;26497;52.494;7.546;2023-09-12T06:48:27;516.83;;;415.67;;
40787;SDS011;26497;52.494;7.546;2023-09-12T06:50:54;483.83;;;407.27;;
40787;SDS011;26497;52.494;7.546;2023-09-12T06:53:22;500.63;;;409.33;;
40787;SDS011;26497;52.494;7.546;2023-09-12T06:55:50;534.15;;;384.27;;
40787;SDS011;26497;52.494;7.546;2023-09-12T06:58:18;490.35;;;357.05;;
40787;SDS011;26497;52.494;7.546;2023-09-12T07:00:45;513.75;;;334.63;;
40787;SDS011;26497;52.494;7.546;2023-09-12T07:03:12;429.45;;;314.65;;
40787;SDS011;26497;52.494;7.546;2023-09-12T07:05:39;530.10;;;317.80;;
40787;SDS011;26497;52.494;7.546;2023-09-12T07:08:09;457.35;;;304.15;;
40787;SDS011;26497;52.494;7.546;2023-09-12T07:10:39;439.73;;;304.00;;
40787;SDS011;26497;52.494;7.546;2023-09-12T07:13:11;561.75;;;311.40;;
40787;SDS011;26497;52.494;7.546;2023-09-12T07:15:38;497.60;;;297.65;;
40787;SDS011;26497;52.494;7.546;2023-09-12T07:18:08;423.13;;;290.92;;
40787;SDS011;26497;52.494;7.546;2023-09-12T07:20:35;450.60;;;286.00;;
40787;SDS011;26497;52.494;7.546;2023-09-12T07:23:04;475.48;;;272.20;;
40787;SDS011;26497;52.494;7.546;2023-09-12T07:25:35;318.27;;;249.75;;
40787;SDS011;26497;52.494;7.546;2023-09-12T07:28:07;301.70;;;245.52;;
40787;SDS011;26497;52.494;7.546;2023-09-12T07:30:35;491.35;;;268.55;;
40787;SDS011;26497;52.494;7.546;2023-09-12T07:33:03;425.02;;;277.83;;
40787;SDS011;26497;52.494;7.546;2023-09-12T07:35:31;342.88;;;268.65;;
40787;SDS011;26497;52.494;7.546;2023-09-12T07:37:59;406.10;;;255.70;;
40787;SDS011;26497;52.494;7.546;2023-09-12T07:42:58;529.25;;;276.83;;
40787;SDS011;26497;52.494;7.546;2023-09-12T07:45:25;491.95;;;252.32;;
40787;SDS011;26497;52.494;7.546;2023-09-12T07:47:53;362.13;;;237.18;;
40787;SDS011;26497;52.494;7.546;2023-09-12T07:50:20;342.73;;;228.55;;
40787;SDS011;26497;52.494;7.546;2023-09-12T07:52:47;384.42;;;239.40;;
40787;SDS011;26497;52.494;7.546;2023-09-12T07:55:14;281.98;;;229.30;;
40787;SDS011;26497;52.494;7.546;2023-09-12T07:57:41;267.35;;;240.13;;
40787;SDS011;26497;52.494;7.546;2023-09-12T08:00:10;270.73;;;243.88;;
40787;SDS011;26497;52.494;7.546;2023-09-12T08:02:38;271.43;;;246.30;;
40787;SDS011;26497;52.494;7.546;2023-09-12T08:05:06;279.80;;;251.52;;
40787;SDS011;26497;52.494;7.546;2023-09-12T08:07:34;310.58;;;258.17;;
40787;SDS011;26497;52.494;7.546;2023-09-12T08:10:01;278.27;;;250.82;;
40787;SDS011;26497;52.494;7.546;2023-09-12T08:12:29;277.70;;;255.18;;
40787;SDS011;26497;52.494;7.546;2023-09-12T08:14:56;303.73;;;279.90;;
40787;SDS011;26497;52.494;7.546;2023-09-12T08:17:27;353.48;;;327.65;;
40787;SDS011;26497;52.494;7.546;2023-09-12T08:19:54;428.05;;;397.83;;
40787;SDS011;26497;52.494;7.546;2023-09-12T08:22:21;471.75;;;435.60;;
40787;SDS011;26497;52.494;7.546;2023-09-12T08:24:48;483.85;;;443.00;;
40787;SDS011;26497;52.494;7.546;2023-09-12T08:27:15;479.70;;;444.13;;
40787;SDS011;26497;52.494;7.546;2023-09-12T08:29:43;470.35;;;433.33;;
40787;SDS011;26497;52.494;7.546;2023-09-12T08:32:13;470.20;;;432.45;;
40787;SDS011;26497;52.494;7.546;2023-09-12T08:34:41;478.65;;;444.25;;
40787;SDS011;26497;52.494;7.546;2023-09-12T08:37:08;461.98;;;427.55;;
40787;SDS011;26497;52.494;7.546;2023-09-12T08:39:39;469.15;;;428.58;;
40787;SDS011;26497;52.494;7.546;2023-09-12T08:42:08;458.85;;;422.70;;
40787;SDS011;26497;52.494;7.546;2023-09-12T08:44:40;450.92;;;413.35;;
40787;SDS011;26497;52.494;7.546;2023-09-12T08:47:08;437.15;;;402.58;;
40787;SDS011;26497;52.494;7.546;2023-09-12T08:49:36;428.15;;;392.83;;
40787;SDS011;26497;52.494;7.546;2023-09-12T08:52:05;428.50;;;383.65;;
40787;SDS011;26497;52.494;7.546;2023-09-12T08:54:32;381.65;;;344.60;;
40787;SDS011;26497;52.494;7.546;2023-09-12T08:57:00;378.63;;;292.60;;
40787;SDS011;26497;52.494;7.546;2023-09-12T08:59:29;708.45;;;421.42;;
40787;SDS011;26497;52.494;7.546;2023-09-12T09:01:59;266.63;;;211.18;;
40787;SDS011;26497;52.494;7.546;2023-09-12T09:04:29;304.70;;;195.15;;
40787;SDS011;26497;52.494;7.546;2023-09-12T09:06:57;1141.28;;;592.72;;
40787;SDS011;26497;52.494;7.546;2023-09-12T09:09:27;1163.72;;;598.03;;
40787;SDS011;26497;52.494;7.546;2023-09-12T09:11:54;790.38;;;411.10;;
40787;SDS011;26497;52.494;7.546;2023-09-12T09:14:21;1999.90;;;999.90;;
40787;SDS011;26497;52.494;7.546;2023-09-12T09:16:48;1999.90;;;999.90;;
40787;SDS011;26497;52.494;7.546;2023-09-12T09:19:15;1999.90;;;999.90;;
40787;SDS011;26497;52.494;7.546;2023-09-12T09:21:44;400.80;;;261.38;;
40787;SDS011;26497;52.494;7.546;2023-09-12T09:24:13;392.27;;;259.75;;
40787;SDS011;26497;52.494;7.546;2023-09-12T09:26:45;384.23;;;260.52;;
40787;SDS011;26497;52.494;7.546;2023-09-12T09:29:14;330.33;;;258.02;;
40787;SDS011;26497;52.494;7.546;2023-09-12T09:31:43;341.90;;;248.32;;
40787;SDS011;26497;52.494;7.546;2023-09-12T09:34:12;381.77;;;248.95;;
40787;SDS011;26497;52.494;7.546;2023-09-12T09:36:43;293.85;;;249.93;;
40787;SDS011;26497;52.494;7.546;2023-09-12T09:39:10;1999.90;;;999.90;;
40787;SDS011;26497;52.494;7.546;2023-09-12T09:41:38;1999.90;;;999.90;;
40787;SDS011;26497;52.494;7.546;2023-09-12T09:44:08;276.85;;;250.35;;
40787;SDS011;26497;52.494;7.546;2023-09-12T09:46:35;284.80;;;256.80;;
40787;SDS011;26497;52.494;7.546;2023-09-12T09:49:03;280.02;;;256.42;;
40787;SDS011;26497;52.494;7.546;2023-09-12T09:51:32;290.90;;;266.13;;
40787;SDS011;26497;52.494;7.546;2023-09-12T09:54:08;269.17;;;248.07;;
40787;SDS011;26497;52.494;7.546;2023-09-12T09:56:44;274.95;;;253.27;;
40787;SDS011;26497;52.494;7.546;2023-09-12T09:59:15;242.13;;;224.35;;
40787;SDS011;26497;52.494;7.546;2023-09-12T10:01:43;233.13;;;215.77;;
40787;SDS011;26497;52.494;7.546;2023-09-12T10:04:12;290.88;;;270.65;;
40787;SDS011;26497;52.494;7.546;2023-09-12T10:06:42;486.98;;;453.55;;
40787;SDS011;26497;52.494;7.546;2023-09-12T10:09:12;474.58;;;443.15;;
40787;SDS011;26497;52.494;7.546;2023-09-12T10:14:12;327.45;;;307.00;;
40787;SDS011;26497;52.494;7.546;2023-09-12T10:16:46;166.23;;;154.85;;
40787;SDS011;26497;52.494;7.546;2023-09-12T10:19:19;133.15;;;123.60;;
40787;SDS011;26497;52.494;7.546;2023-09-12T10:21:52;118.20;;;109.78;;
40787;SDS011;26497;52.494;7.546;2023-09-12T10:24:30;151.23;;;140.95;;
40787;SDS011;26497;52.494;7.546;2023-09-12T10:26:59;221.45;;;207.65;;
40787;SDS011;26497;52.494;7.546;2023-09-12T10:29:30;239.73;;;224.63;;
40787;SDS011;26497;52.494;7.546;2023-09-12T10:31:57;245.73;;;230.18;;
40787;SDS011;26497;52.494;7.546;2023-09-12T10:34:25;265.38;;;248.65;;
40787;SDS011;26497;52.494;7.546;2023-09-12T10:36:54;286.10;;;268.38;;
40787;SDS011;26497;52.494;7.546;2023-09-12T10:39:23;257.98;;;242.20;;
40787;SDS011;26497;52.494;7.546;2023-09-12T10:41:56;238.25;;;223.38;;
40787;SDS011;26497;52.494;7.546;2023-09-12T10:44:25;213.65;;;199.85;;
40787;SDS011;26497;52.494;7.546;2023-09-12T10:46:53;222.70;;;208.68;;
40787;SDS011;26497;52.494;7.546;2023-09-12T10:49:21;238.57;;;224.02;;
40787;SDS011;26497;52.494;7.546;2023-09-12T10:51:49;231.32;;;217.02;;
40787;SDS011;26497;52.494;7.546;2023-09-12T10:54:22;251.77;;;236.75;;
40787;SDS011;26497;52.494;7.546;2023-09-12T10:57:01;274.75;;;258.10;;
40787;SDS011;26497;52.494;7.546;2023-09-12T10:59:30;263.58;;;247.63;;
40787;SDS011;26497;52.494;7.546;2023-09-12T11:04:57;295.70;;;278.35;;
40787;SDS011;26497;52.494;7.546;2023-09-12T11:07:43;318.67;;;300.17;;
40787;SDS011;26497;52.494;7.546;2023-09-12T11:10:20;1999.90;;;999.90;;
40787;SDS011;26497;52.494;7.546;2023-09-12T11:12:51;1999.90;;;999.90;;
40787;SDS011;26497;52.494;7.546;2023-09-12T11:15:20;1999.90;;;999.90;;
40787;SDS011;26497;52.494;7.546;2023-09-12T11:17:59;1999.90;;;999.90;;
40787;SDS011;26497;52.494;7.546;2023-09-12T11:20:51;1999.90;;;999.90;;
40787;SDS011;26497;52.494;7.546;2023-09-12T11:23:28;1999.90;;;999.90;;
40787;SDS011;26497;52.494;7.546;2023-09-12T11:26:03;1999.90;;;999.90;;
40787;SDS011;26497;52.494;7.546;2023-09-12T11:28:31;1999.90;;;999.90;;
40787;SDS011;26497;52.494;7.546;2023-09-12T11:30:59;1999.90;;;999.90;;
40787;SDS011;26497;52.494;7.546;2023-09-12T11:33:27;1999.90;;;999.90;;
40787;SDS011;26497;52.494;7.546;2023-09-12T11:35:54;1999.90;;;999.90;;
40787;SDS011;26497;52.494;7.546;2023-09-12T11:38:26;1999.90;;;999.90;;
40787;SDS011;26497;52.494;7.546;2023-09-12T11:40:55;1999.90;;;999.90;;
40787;SDS011;26497;52.494;7.546;2023-09-12T11:43:25;1999.90;;;999.90;;
40787;SDS011;26497;52.494;7.546;2023-09-12T11:45:54;1999.90;;;999.90;;
40787;SDS011;26497;52.494;7.546;2023-09-12T11:48:22;1999.90;;;999.90;;
40787;SDS011;26497;52.494;7.546;2023-09-12T11:50:51;1999.90;;;999.90;;
40787;SDS011;26497;52.494;7.546;2023-09-12T11:53:20;1999.90;;;999.90;;
40787;SDS011;26497;52.494;7.546;2023-09-12T11:55:51;1999.90;;;999.90;;
40787;SDS011;26497;52.494;7.546;2023-09-12T11:58:22;1999.90;;;999.90;;
40787;SDS011;26497;52.494;7.546;2023-09-12T12:00:52;1999.90;;;999.90;;
40787;SDS011;26497;52.494;7.546;2023-09-12T12:03:22;1999.90;;;999.90;;
40787;SDS011;26497;52.494;7.546;2023-09-12T12:05:51;1999.90;;;999.90;;
40787;SDS011;26497;52.494;7.546;2023-09-12T12:08:20;1999.90;;;999.90;;
40787;SDS011;26497;52.494;7.546;2023-09-12T12:10:49;1999.90;;;999.90;;
40787;SDS011;26497;52.494;7.546;2023-09-12T12:13:16;1999.90;;;999.90;;
40787;SDS011;26497;52.494;7.546;2023-09-12T12:15:44;1999.90;;;999.90;;
40787;SDS011;26497;52.494;7.546;2023-09-12T12:18:11;1999.90;;;999.90;;
40787;SDS011;26497;52.494;7.546;2023-09-12T12:20:38;1999.90;;;999.90;;
40787;SDS011;26497;52.494;7.546;2023-09-12T12:23:07;1999.90;;;999.90;;
40787;SDS011;26497;52.494;7.546;2023-09-12T12:25:35;1999.90;;;999.90;;
40787;SDS011;26497;52.494;7.546;2023-09-12T12:28:02;1999.90;;;999.90;;
40787;SDS011;26497;52.494;7.546;2023-09-12T12:30:31;1999.90;;;999.90;;
40787;SDS011;26497;52.494;7.546;2023-09-12T12:33:00;1999.90;;;999.90;;
40787;SDS011;26497;52.494;7.546;2023-09-12T12:35:32;1999.90;;;999.90;;
40787;SDS011;26497;52.494;7.546;2023-09-12T12:38:01;1999.90;;;999.90;;
40787;SDS011;26497;52.494;7.546;2023-09-12T12:40:29;1999.90;;;999.90;;
40787;SDS011;26497;52.494;7.546;2023-09-12T12:42:56;1999.90;;;999.90;;
40787;SDS011;26497;52.494;7.546;2023-09-12T12:45:24;1999.90;;;999.90;;
40787;SDS011;26497;52.494;7.546;2023-09-12T12:47:51;1999.90;;;999.90;;
40787;SDS011;26497;52.494;7.546;2023-09-12T12:50:24;1999.90;;;999.90;;
40787;SDS011;26497;52.494;7.546;2023-09-12T12:52:51;1999.90;;;999.90;;
40787;SDS011;26497;52.494;7.546;2023-09-12T12:55:20;1999.90;;;999.90;;
40787;SDS011;26497;52.494;7.546;2023-09-12T12:57:52;1999.90;;;999.90;;
40787;SDS011;26497;52.494;7.546;2023-09-12T13:00:19;1999.90;;;999.90;;
40787;SDS011;26497;52.494;7.546;2023-09-12T13:02:48;1999.90;;;999.90;;
40787;SDS011;26497;52.494;7.546;2023-09-12T13:05:21;1999.90;;;999.90;;
40787;SDS011;26497;52.494;7.546;2023-09-12T13:07:51;1999.90;;;999.90;;
40787;SDS011;26497;52.494;7.546;2023-09-12T13:10:18;1999.90;;;999.90;;
40787;SDS011;26497;52.494;7.546;2023-09-12T13:12:45;1999.90;;;999.90;;
40787;SDS011;26497;52.494;7.546;2023-09-12T13:15:14;1999.90;;;999.90;;
40787;SDS011;26497;52.494;7.546;2023-09-12T13:17:43;1999.90;;;999.90;;
40787;SDS011;26497;52.494;7.546;2023-09-12T13:20:14;1999.90;;;999.90;;
40787;SDS011;26497;52.494;7.546;2023-09-12T13:22:41;1999.90;;;999.90;;
40787;SDS011;26497;52.494;7.546;2023-09-12T13:25:09;1999.90;;;999.90;;
40787;SDS011;26497;52.494;7.546;2023-09-12T13:27:36;1999.90;;;999.90;;
40787;SDS011;26497;52.494;7.546;2023-09-12T13:30:03;1999.90;;;999.90;;
40787;SDS011;26497;52.494;7.546;2023-09-12T13:32:33;1999.90;;;999.90;;
40787;SDS011;26497;52.494;7.546;2023-09-12T13:35:00;1999.90;;;999.90;;
40787;SDS011;26497;52.494;7.546;2023-09-12T13:37:27;1999.90;;;999.90;;
40787;SDS011;26497;52.494;7.546;2023-09-12T13:39:55;1999.90;;;999.90;;
40787;SDS011;26497;52.494;7.546;2023-09-12T13:42:23;1999.90;;;999.90;;
40787;SDS011;26497;52.494;7.546;2023-09-12T13:44:55;1999.90;;;999.90;;
40787;SDS011;26497;52.494;7.546;2023-09-12T13:47:23;1999.90;;;999.90;;
40787;SDS011;26497;52.494;7.546;2023-09-12T13:49:52;1999.90;;;999.90;;
40787;SDS011;26497;52.494;7.546;2023-09-12T13:52:19;1999.90;;;999.90;;
40787;SDS011;26497;52.494;7.546;2023-09-12T13:54:46;1999.90;;;999.90;;
40787;SDS011;26497;52.494;7.546;2023-09-12T13:57:13;1999.90;;;999.90;;
40787;SDS011;26497;52.494;7.546;2023-09-12T13:59:41;1999.90;;;999.90;;
40787;SDS011;26497;52.494;7.546;2023-09-12T14:02:08;1999.90;;;999.90;;
40787;SDS011;26497;52.494;7.546;2023-09-12T14:04:35;1999.90;;;999.90;;
40787;SDS011;26497;52.494;7.546;2023-09-12T14:07:04;1999.90;;;999.90;;
40787;SDS011;26497;52.494;7.546;2023-09-12T14:09:31;1999.90;;;999.90;;
40787;SDS011;26497;52.494;7.546;2023-09-12T14:11:57;1999.90;;;999.90;;